Edgefield, SC (29824)

10:18 PM EST on November 26, 2014 (GMT -0500)
Columbia Road | Change Station
CLOSE
Current Station
Personal Weather Station
Location: Edgefield, SC
Elevation: 550 ft
Nearby Weather Stations

Elev 550 ft 33.78 °N, 81.92 °W | Updated 2 seconds ago

Clear
Clear
40.7 °F
Feels Like 41 °F
N
0.0
Wind Variable Wind from ESE
Gusts 1.0 mph

Today
High -- | Low -- °F
--% Chance of Precip.
Yesterday
High -- | Low -- °F
Precip. -- in
7:10 AM 5:19 PM
Waxing Crescent, 25% visible
Pressure 30.11 in
Visibility 10.0 miles
Clouds Clear
Windchill 41 °F
Dew Point 33 °F
Humidity 74%
Rainfall 0.57 in
Snow Depth Not available.
UV 0 out of 12
Pollen .30 out of 12
Air Quality Not available.
Flu Activity Not available.
METAR KAIK 270255Z AUTO 00000KT 10SM CLR 06/00 A3011 RMK AO2 PNO

More Conditions Fewer Conditions

Pressure 30.11 in
Visibility 10.0 miles
Clouds Clear
Windchill 41 °F
Dew Point 33 °F
Humidity 74%
Rainfall 0.57 in
Snow Depth Not available.
UV 0 out of 12
Pollen .30 out of 12
Air Quality Not available.
Flu Activity Not available.
METAR KAIK 270255Z AUTO 00000KT 10SM CLR 06/00 A3011 RMK AO2 PNO

More Conditions Fewer Conditions

10-Day Weather Forecast

Almanac

Astronomy

Nov. 26, 2014 Rise Set
Actual Time
Civil Twilight
Nautical Twilight
Astronomical Twilight
Moon
Length of Visible Light
Length of Day
Tomorrow will be .
, % of the Moon is Illuminated

Today's Extremes

State Highs State Lows

Community

WunderPhotos

Upload Photos

1,773,949 photos uploaded!

WunderBlogs® & News

Nearby

Air Quality

  Air Quality AQ Index Pollutant
Not available.

Snow Depth

Station Depth Elevation

Earthquake Activity

City Distance Mag. Time & Date
Minimum magnitude displayed is 2.5.

Coastal Water Temperatures

Place Temperature

Nearby Weather Stations